createdAt,value
2023-11-15T00:00:57.956Z,26.40
2023-11-15T00:03:27.733Z,28.45
2023-11-15T00:05:56.040Z,27.33
2023-11-15T00:08:24.367Z,47.78
2023-11-15T00:10:52.698Z,35.17
2023-11-15T00:13:21.033Z,31.20
2023-11-15T00:15:49.363Z,30.13
2023-11-15T00:18:17.861Z,29.08
2023-11-15T00:20:47.534Z,29.88
2023-11-15T00:23:15.788Z,28.85
2023-11-15T00:25:44.408Z,26.40
2023-11-15T00:28:14.356Z,22.70
2023-11-15T00:30:42.965Z,23.25
2023-11-15T00:33:12.536Z,28.23
2023-11-15T00:35:41.197Z,24.63
2023-11-15T00:38:12.374Z,24.95
2023-11-15T00:40:43.003Z,21.92
2023-11-15T00:43:11.256Z,25.85
2023-11-15T00:45:39.652Z,25.05
2023-11-15T00:48:08.227Z,28.88
2023-11-15T00:50:36.515Z,25.20
2023-11-15T00:53:05.987Z,23.02
2023-11-15T00:55:35.493Z,23.95
2023-11-15T00:58:05.067Z,24.33
2023-11-15T01:00:40.799Z,24.00
2023-11-15T01:03:09.366Z,23.48
2023-11-15T01:05:38.750Z,23.08
2023-11-15T01:08:07.192Z,23.63
2023-11-15T01:10:37.450Z,23.08
2023-11-15T01:13:06.470Z,22.35
2023-11-15T01:15:35.024Z,26.13
2023-11-15T01:18:09.461Z,24.92
2023-11-15T01:20:39.465Z,24.58
2023-11-15T01:23:08.119Z,23.92
2023-11-15T01:25:38.800Z,25.13
2023-11-15T01:28:07.134Z,24.70
2023-11-15T01:30:35.449Z,25.30
2023-11-15T01:33:04.329Z,24.08
2023-11-15T01:35:34.102Z,23.15
2023-11-15T01:38:02.364Z,24.08
2023-11-15T01:40:35.533Z,25.65
2023-11-15T01:43:05.979Z,22.35
2023-11-15T01:45:34.152Z,23.63
2023-11-15T01:48:02.692Z,23.33
2023-11-15T01:50:31.755Z,21.70
2023-11-15T01:53:01.592Z,23.90
2023-11-15T01:55:31.219Z,24.02
2023-11-15T01:58:00.519Z,23.60
2023-11-15T02:00:30.318Z,24.45
2023-11-15T02:02:58.615Z,21.75
2023-11-15T02:05:27.964Z,21.17
2023-11-15T02:07:56.633Z,19.20
2023-11-15T02:10:25.204Z,20.73
2023-11-15T02:12:53.631Z,22.52
2023-11-15T02:15:22.755Z,17.25
2023-11-15T02:17:53.234Z,17.50
2023-11-15T02:20:23.838Z,16.58
2023-11-15T02:22:53.498Z,15.90
2023-11-15T02:25:24.656Z,16.33
2023-11-15T02:27:52.852Z,14.00
2023-11-15T02:30:21.440Z,13.77
2023-11-15T02:32:49.783Z,14.23
2023-11-15T02:35:18.220Z,15.75
2023-11-15T02:37:46.484Z,14.43
2023-11-15T02:40:14.780Z,15.82
2023-11-15T02:42:44.368Z,16.50
2023-11-15T02:45:12.660Z,15.32
2023-11-15T02:47:40.947Z,15.50
2023-11-15T02:50:10.460Z,17.13
2023-11-15T02:52:38.719Z,16.52
2023-11-15T02:55:07.396Z,17.52
2023-11-15T02:57:35.634Z,17.08
2023-11-15T03:00:07.495Z,15.75
2023-11-15T03:02:36.026Z,17.60
2023-11-15T03:05:04.541Z,16.27
2023-11-15T03:07:32.848Z,16.02
2023-11-15T03:10:01.113Z,16.23
2023-11-15T03:12:30.781Z,14.50
2023-11-15T03:14:59.104Z,15.13
2023-11-15T03:17:29.916Z,14.48
2023-11-15T03:19:58.265Z,15.77
2023-11-15T03:22:26.510Z,14.38
2023-11-15T03:24:55.282Z,14.95
2023-11-15T03:27:23.673Z,14.93
2023-11-15T03:29:52.151Z,15.57
2023-11-15T03:32:20.635Z,15.50
2023-11-15T03:34:51.183Z,15.32
2023-11-15T03:37:19.715Z,14.40
2023-11-15T03:39:48.664Z,13.30
2023-11-15T03:42:17.328Z,13.98
2023-11-15T03:44:45.609Z,13.55
2023-11-15T03:47:13.857Z,12.73
2023-11-15T03:49:42.027Z,13.45
2023-11-15T03:52:11.597Z,13.50
2023-11-15T03:54:38.885Z,14.80
2023-11-15T03:57:09.295Z,12.13
2023-11-15T03:59:37.597Z,12.07
2023-11-15T04:02:06.208Z,12.82
2023-11-15T04:04:34.816Z,14.25
2023-11-15T04:07:04.504Z,12.20
2023-11-15T04:09:34.951Z,11.68
2023-11-15T04:12:03.475Z,12.75
2023-11-15T04:14:31.738Z,11.90
2023-11-15T04:17:00.105Z,11.50
2023-11-15T04:19:28.446Z,10.98
2023-11-15T04:22:08.670Z,12.60
2023-11-15T04:24:44.293Z,15.02
2023-11-15T04:27:14.199Z,13.82
2023-11-15T04:29:41.766Z,11.38
2023-11-15T04:32:10.226Z,10.85
2023-11-15T04:34:38.382Z,10.40
2023-11-15T04:37:06.841Z,13.23
2023-11-15T04:39:35.022Z,13.00
2023-11-15T04:42:05.513Z,11.80
2023-11-15T04:44:33.939Z,12.63
2023-11-15T04:47:02.460Z,12.38
2023-11-15T04:49:30.693Z,11.82
2023-11-15T04:51:58.948Z,13.85
2023-11-15T04:54:27.420Z,12.75
2023-11-15T04:56:55.705Z,13.57
2023-11-15T04:59:25.573Z,13.15
2023-11-15T05:01:53.978Z,12.35
2023-11-15T05:04:23.084Z,19.20
2023-11-15T05:06:51.601Z,14.20
2023-11-15T05:09:20.441Z,15.77
2023-11-15T05:11:48.696Z,12.95
2023-11-15T05:14:16.985Z,12.98
2023-11-15T05:16:46.708Z,11.55
2023-11-15T05:19:15.121Z,13.10
2023-11-15T05:21:44.691Z,13.43
2023-11-15T05:24:12.883Z,14.38
2023-11-15T05:26:41.056Z,13.60
2023-11-15T05:29:09.245Z,14.55
2023-11-15T05:31:37.483Z,15.73
2023-11-15T05:34:07.420Z,15.48
2023-11-15T05:36:35.703Z,15.73
2023-11-15T05:39:04.524Z,15.45
2023-11-15T05:41:32.943Z,14.15
2023-11-15T05:44:01.495Z,15.23
2023-11-15T05:46:29.785Z,15.95
2023-11-15T05:48:58.080Z,15.82
2023-11-15T05:51:27.979Z,15.25
2023-11-15T05:53:56.340Z,16.63
2023-11-15T05:56:24.969Z,15.32
2023-11-15T05:58:53.127Z,14.70
2023-11-15T06:01:21.743Z,13.70
2023-11-15T06:03:50.199Z,13.07
2023-11-15T06:06:18.549Z,13.80
2023-11-15T06:08:48.590Z,15.02
2023-11-15T06:11:17.509Z,14.82
2023-11-15T06:13:45.760Z,14.18
2023-11-15T06:16:14.003Z,12.15
2023-11-15T06:18:43.504Z,12.57
2023-11-15T06:21:12.495Z,11.80
2023-11-15T06:23:41.066Z,14.00
2023-11-15T06:26:12.583Z,14.15
2023-11-15T06:28:42.103Z,12.02
2023-11-15T06:31:10.339Z,13.50
2023-11-15T06:33:39.669Z,12.60
2023-11-15T06:36:09.616Z,11.73
2023-11-15T06:38:38.050Z,12.32
2023-11-15T06:41:08.738Z,14.15
2023-11-15T06:43:38.764Z,12.80
2023-11-15T06:46:07.107Z,13.13
2023-11-15T06:48:35.827Z,13.45
2023-11-15T06:51:11.555Z,13.02
2023-11-15T06:53:46.532Z,13.07
2023-11-15T06:56:17.995Z,14.65
2023-11-15T06:58:48.304Z,14.10
2023-11-15T07:01:22.846Z,12.23
2023-11-15T07:03:56.027Z,13.93
2023-11-15T07:06:31.323Z,13.70
2023-11-15T07:09:00.409Z,13.87
2023-11-15T07:11:29.425Z,11.87
2023-11-15T07:13:59.766Z,12.10
2023-11-15T07:16:28.091Z,12.97
2023-11-15T07:18:56.485Z,11.93
2023-11-15T07:21:24.782Z,12.07
2023-11-15T07:23:53.244Z,10.47
2023-11-15T07:26:22.560Z,12.23
2023-11-15T07:28:50.809Z,11.77
2023-11-15T07:31:21.667Z,10.93
2023-11-15T07:33:49.841Z,11.50
2023-11-15T07:36:18.114Z,12.60
2023-11-15T07:38:46.817Z,11.10
2023-11-15T07:41:15.111Z,11.87
2023-11-15T07:43:43.618Z,10.43
2023-11-15T07:46:11.894Z,12.23
2023-11-15T07:48:42.835Z,11.40
2023-11-15T07:51:11.647Z,11.80
2023-11-15T07:53:40.377Z,14.17
2023-11-15T07:56:10.031Z,12.93
2023-11-15T07:58:39.092Z,13.73
2023-11-15T08:01:09.748Z,11.40
2023-11-15T08:03:38.214Z,11.47
2023-11-15T08:06:09.103Z,13.20
2023-11-15T08:08:37.900Z,11.60
2023-11-15T08:11:06.584Z,12.20
2023-11-15T08:13:34.795Z,11.43
2023-11-15T08:16:03.781Z,11.80
2023-11-15T08:18:32.543Z,11.90
2023-11-15T08:21:02.642Z,11.57
2023-11-15T08:23:32.337Z,11.00
2023-11-15T08:26:03.690Z,10.83
2023-11-15T08:28:32.229Z,10.73
2023-11-15T08:31:00.607Z,12.10
2023-11-15T08:33:29.173Z,15.03
2023-11-15T08:35:57.807Z,13.50
2023-11-15T08:38:26.247Z,13.07
2023-11-15T08:40:56.911Z,12.27
2023-11-15T08:43:25.331Z,12.90
2023-11-15T08:45:53.575Z,12.43
2023-11-15T08:48:21.845Z,11.40
2023-11-15T08:50:50.225Z,12.23
2023-11-15T08:53:19.969Z,10.87
2023-11-15T08:55:50.259Z,8.73
2023-11-15T08:58:22.895Z,10.27
2023-11-15T09:00:52.051Z,9.20
2023-11-15T09:03:20.434Z,8.17
2023-11-15T09:05:50.405Z,8.97
2023-11-15T09:08:20.120Z,8.73
2023-11-15T09:10:48.382Z,9.13
2023-11-15T09:13:16.631Z,8.47
2023-11-15T09:15:47.693Z,7.93
2023-11-15T09:18:16.306Z,6.40
2023-11-15T09:20:44.988Z,6.73
2023-11-15T09:23:22.383Z,5.00
2023-11-15T09:26:00.441Z,5.13
2023-11-15T09:28:29.526Z,4.20
2023-11-15T09:30:59.402Z,3.57
2023-11-15T09:33:31.004Z,3.47
2023-11-15T09:36:01.663Z,4.90
2023-11-15T09:38:30.759Z,4.85
2023-11-15T09:41:00.824Z,4.53
2023-11-15T09:43:30.048Z,5.00
2023-11-15T09:46:03.632Z,5.33
2023-11-15T09:48:34.140Z,6.28
2023-11-15T09:51:04.128Z,6.78
2023-11-15T09:56:05.560Z,5.57
2023-11-15T09:58:34.166Z,5.68
2023-11-15T10:01:05.429Z,5.80
2023-11-15T10:03:33.828Z,5.60
2023-11-15T10:06:04.912Z,6.45
2023-11-15T10:08:33.327Z,5.68
2023-11-15T10:11:07.907Z,5.45
2023-11-15T10:13:39.215Z,4.72
2023-11-15T10:19:01.784Z,5.10
2023-11-15T10:21:30.459Z,6.85
2023-11-15T10:24:14.193Z,4.28
2023-11-15T10:26:42.752Z,4.38
2023-11-15T10:29:13.921Z,4.60
2023-11-15T10:31:51.235Z,3.30
2023-11-15T10:34:30.904Z,3.20
2023-11-15T10:37:08.643Z,2.92
2023-11-15T10:39:42.143Z,2.75
2023-11-15T10:42:14.314Z,3.00
2023-11-15T10:44:48.718Z,3.70
2023-11-15T10:47:21.222Z,2.67
2023-11-15T10:49:55.261Z,2.72
2023-11-15T10:52:25.381Z,3.00
2023-11-15T10:54:58.295Z,2.88
2023-11-15T10:57:28.754Z,3.38
2023-11-15T10:59:58.626Z,3.72
2023-11-15T11:02:33.131Z,4.50
2023-11-15T11:05:03.479Z,3.78
2023-11-15T11:07:43.863Z,4.25
2023-11-15T11:10:21.976Z,4.15
2023-11-15T11:12:50.506Z,4.55
2023-11-15T11:15:28.258Z,3.00
2023-11-15T11:18:07.258Z,4.43
2023-11-15T11:20:42.006Z,3.47
2023-11-15T11:23:17.735Z,3.70
2023-11-15T11:25:47.907Z,3.10
2023-11-15T11:28:16.752Z,4.68
2023-11-15T11:30:45.987Z,4.35
2023-11-15T11:33:17.094Z,3.80
2023-11-15T11:35:49.596Z,3.38
2023-11-15T11:38:44.327Z,3.90
2023-11-15T11:41:15.038Z,3.80
2023-11-15T11:43:43.724Z,6.00
2023-11-15T11:46:17.122Z,8.07
2023-11-15T11:48:45.739Z,3.42
2023-11-15T11:51:17.500Z,3.05
2023-11-15T11:53:48.025Z,9.77
2023-11-15T11:56:17.243Z,4.57
2023-11-15T11:58:45.847Z,4.72
2023-11-15T12:01:14.510Z,7.65
2023-11-15T12:03:48.970Z,6.80
2023-11-15T12:06:20.183Z,4.45
2023-11-15T12:08:50.649Z,8.77
2023-11-15T12:11:23.307Z,5.07
2023-11-15T12:13:53.984Z,4.68
2023-11-15T12:16:24.057Z,4.30
2023-11-15T12:19:04.808Z,5.65
2023-11-15T12:21:37.785Z,6.20
2023-11-15T12:24:11.165Z,10.35
2023-11-15T12:26:47.723Z,11.65
2023-11-15T12:29:24.645Z,14.50
2023-11-15T12:31:54.946Z,18.50
2023-11-15T12:34:24.220Z,16.55
2023-11-15T12:36:54.501Z,12.90
2023-11-15T12:39:24.151Z,15.82
2023-11-15T12:41:54.731Z,10.73
2023-11-15T12:44:23.178Z,9.07
2023-11-15T12:46:59.348Z,9.30
2023-11-15T12:49:29.095Z,11.07
2023-11-15T12:51:58.751Z,14.30
2023-11-15T12:54:27.036Z,15.52
2023-11-15T12:57:05.812Z,17.35
2023-11-15T12:59:34.975Z,19.58
2023-11-15T13:02:03.364Z,17.20
2023-11-15T13:04:47.187Z,14.35
2023-11-15T13:07:17.092Z,13.75
2023-11-15T13:09:46.292Z,15.10
2023-11-15T13:12:24.317Z,11.00
2023-11-15T13:14:52.739Z,10.43
2023-11-15T13:17:20.998Z,8.63
2023-11-15T13:19:50.090Z,9.65
2023-11-15T13:22:19.723Z,6.38
2023-11-15T13:24:51.172Z,8.75
2023-11-15T13:27:21.683Z,7.88
2023-11-15T13:29:51.949Z,9.00
2023-11-15T13:32:20.696Z,10.75
2023-11-15T13:34:52.042Z,9.38
2023-11-15T13:37:22.147Z,9.35
2023-11-15T13:39:50.301Z,7.25
2023-11-15T13:42:18.636Z,6.57
2023-11-15T13:44:48.658Z,6.18
2023-11-15T13:47:17.011Z,6.95
2023-11-15T13:49:48.873Z,6.75
2023-11-15T13:52:17.773Z,4.25
2023-11-15T13:54:48.256Z,5.85
2023-11-15T13:57:18.715Z,6.07
2023-11-15T13:59:47.359Z,6.30
2023-11-15T14:02:15.634Z,8.27
2023-11-15T14:04:44.016Z,5.88
2023-11-15T14:07:12.585Z,4.85
2023-11-15T14:09:41.195Z,6.90
2023-11-15T14:12:12.268Z,6.15
2023-11-15T14:14:41.331Z,5.13
2023-11-15T14:17:11.296Z,3.65
2023-11-15T14:19:41.188Z,3.40
2023-11-15T14:22:13.193Z,3.20
2023-11-15T14:24:41.567Z,3.78
2023-11-15T14:27:12.764Z,3.25
2023-11-15T14:29:41.135Z,4.70
2023-11-15T14:32:11.241Z,3.55
2023-11-15T14:34:39.518Z,3.35
2023-11-15T14:37:07.735Z,3.15
2023-11-15T14:39:35.994Z,2.75
2023-11-15T14:42:07.763Z,3.90
2023-11-15T14:44:37.972Z,3.35
2023-11-15T14:47:10.188Z,3.47
2023-11-15T14:49:38.660Z,2.60
2023-11-15T14:52:12.123Z,2.53
2023-11-15T14:54:47.060Z,2.95
2023-11-15T14:57:16.411Z,4.40
2023-11-15T14:59:48.284Z,3.72
2023-11-15T15:02:18.697Z,7.35
2023-11-15T15:04:49.291Z,4.00
2023-11-15T15:07:19.870Z,3.80
2023-11-15T15:09:48.356Z,4.20
2023-11-15T15:12:16.590Z,3.33
2023-11-15T15:14:46.457Z,3.00
2023-11-15T15:17:23.660Z,3.30
2023-11-15T15:19:55.411Z,3.30
2023-11-15T15:22:27.372Z,2.60
2023-11-15T15:24:55.931Z,2.97
2023-11-15T15:27:28.226Z,4.10
2023-11-15T15:29:59.398Z,4.50
2023-11-15T15:32:28.272Z,3.85
2023-11-15T15:34:58.391Z,3.22
2023-11-15T15:37:26.946Z,4.43
2023-11-15T15:39:55.607Z,3.53
2023-11-15T15:42:25.410Z,3.50
2023-11-15T15:44:53.840Z,5.32
2023-11-15T15:47:23.534Z,3.80
2023-11-15T15:49:52.851Z,3.55
2023-11-15T15:52:23.214Z,4.25
2023-11-15T15:54:51.484Z,3.53
2023-11-15T15:57:20.245Z,3.85
2023-11-15T15:59:48.477Z,2.80
2023-11-15T16:02:16.851Z,2.78
2023-11-15T16:04:46.444Z,3.17
2023-11-15T16:07:14.789Z,3.67
2023-11-15T16:09:43.605Z,3.28
2023-11-15T16:12:11.991Z,3.00
2023-11-15T16:14:40.282Z,3.28
2023-11-15T16:17:09.084Z,3.40
2023-11-15T16:19:37.409Z,2.65
2023-11-15T16:22:07.058Z,3.47
2023-11-15T16:24:35.301Z,2.70
2023-11-15T16:27:04.970Z,3.00
2023-11-15T16:29:33.546Z,2.45
2023-11-15T16:32:02.205Z,3.30
2023-11-15T16:34:30.357Z,3.00
2023-11-15T16:36:59.776Z,3.00
2023-11-15T16:39:29.482Z,3.75
2023-11-15T16:41:57.764Z,3.10
2023-11-15T16:44:29.545Z,2.78
2023-11-15T16:46:57.989Z,3.58
2023-11-15T16:49:26.245Z,3.88
2023-11-15T16:51:55.189Z,3.42
2023-11-15T16:54:23.521Z,4.05
2023-11-15T16:56:53.250Z,5.78
2023-11-15T16:59:21.464Z,3.55
2023-11-15T17:01:49.736Z,5.30
2023-11-15T17:04:18.584Z,5.18
2023-11-15T17:06:46.844Z,6.05
2023-11-15T17:09:15.636Z,9.13
2023-11-15T17:11:44.766Z,10.02
2023-11-15T17:14:15.365Z,10.05
2023-11-15T17:16:46.394Z,8.57
2023-11-15T17:19:15.408Z,8.15
2023-11-15T17:21:47.324Z,7.40
2023-11-15T17:24:16.461Z,6.60
2023-11-15T17:26:46.755Z,7.90
2023-11-15T17:29:16.923Z,11.05
2023-11-15T17:31:45.439Z,10.30
2023-11-15T17:34:14.083Z,7.88
2023-11-15T17:36:42.431Z,7.75
2023-11-15T17:39:13.495Z,8.40
2023-11-15T17:41:42.430Z,4.63
2023-11-15T17:44:15.765Z,4.95
2023-11-15T17:46:45.950Z,4.90
2023-11-15T17:49:15.376Z,5.38
2023-11-15T17:51:46.171Z,5.88
2023-11-15T17:54:16.183Z,5.70
2023-11-15T17:56:46.216Z,5.30
2023-11-15T17:59:14.582Z,4.88
2023-11-15T18:01:43.261Z,5.43
2023-11-15T18:04:16.342Z,5.53
2023-11-15T18:06:45.293Z,6.10
2023-11-15T18:09:13.674Z,5.55
2023-11-15T18:11:42.045Z,5.45
2023-11-15T18:14:12.037Z,5.38
2023-11-15T18:16:40.460Z,5.03
2023-11-15T18:19:09.693Z,4.72
2023-11-15T18:21:39.783Z,4.55
2023-11-15T18:24:10.500Z,4.75
2023-11-15T18:26:40.283Z,5.47
2023-11-15T18:29:08.469Z,7.03
2023-11-15T18:31:36.705Z,7.05
2023-11-15T18:34:05.036Z,8.50
2023-11-15T18:36:33.386Z,9.05
2023-11-15T18:39:03.190Z,9.25
2023-11-15T18:41:32.445Z,8.65
2023-11-15T18:44:01.006Z,8.43
2023-11-15T18:46:30.378Z,8.23
2023-11-15T18:48:59.761Z,7.90
2023-11-15T18:51:31.522Z,6.68
2023-11-15T18:54:02.601Z,8.27
2023-11-15T18:56:32.404Z,7.60
2023-11-15T18:59:02.867Z,7.28
2023-11-15T19:01:31.306Z,7.45
2023-11-15T19:04:00.961Z,6.95
2023-11-15T19:06:30.611Z,7.03
2023-11-15T19:08:58.993Z,6.20
2023-11-15T19:11:28.525Z,6.70
2023-11-15T19:13:58.913Z,7.15
2023-11-15T19:16:29.862Z,7.75
2023-11-15T19:18:58.383Z,8.15
2023-11-15T19:21:26.882Z,7.63
2023-11-15T19:23:55.731Z,8.30
2023-11-15T19:26:25.806Z,8.20
2023-11-15T19:28:54.079Z,10.30
2023-11-15T19:31:25.131Z,7.53
2023-11-15T19:33:54.930Z,7.32
2023-11-15T19:36:23.267Z,13.05
2023-11-15T19:38:51.559Z,10.45
2023-11-15T19:41:20.706Z,8.55
2023-11-15T19:43:49.068Z,5.85
2023-11-15T19:46:20.532Z,5.35
2023-11-15T19:48:50.261Z,5.68
2023-11-15T19:51:36.926Z,3.67
2023-11-15T19:54:08.639Z,3.33
2023-11-15T19:56:37.315Z,3.10
2023-11-15T19:59:05.549Z,3.63
2023-11-15T20:01:33.788Z,3.50
2023-11-15T20:04:06.044Z,2.63
2023-11-15T20:06:34.489Z,4.05
2023-11-15T20:09:02.868Z,3.55
2023-11-15T20:11:31.173Z,2.67
2023-11-15T20:13:59.544Z,3.08
2023-11-15T20:16:28.886Z,4.05
2023-11-15T20:18:57.394Z,4.00
2023-11-15T20:21:27.271Z,3.30
2023-11-15T20:23:55.656Z,3.78
2023-11-15T20:26:23.985Z,3.20
2023-11-15T20:28:53.166Z,2.05
2023-11-15T20:31:22.550Z,2.25
2023-11-15T20:33:51.223Z,1.67
2023-11-15T20:36:19.736Z,2.08
2023-11-15T20:38:49.405Z,2.00
2023-11-15T20:41:18.077Z,1.40
2023-11-15T20:43:46.522Z,1.90
2023-11-15T20:46:18.437Z,1.70
2023-11-15T20:48:48.688Z,1.33
2023-11-15T20:51:17.248Z,1.50
2023-11-15T20:53:46.005Z,1.60
2023-11-15T20:56:15.814Z,1.65
2023-11-15T20:58:44.065Z,1.40
2023-11-15T21:01:12.406Z,1.45
2023-11-15T21:03:40.830Z,1.52
2023-11-15T21:06:10.555Z,1.30
2023-11-15T21:08:39.609Z,1.90
2023-11-15T21:11:08.944Z,1.48
2023-11-15T21:13:38.821Z,1.70
2023-11-15T21:16:08.335Z,1.95
2023-11-15T21:18:37.054Z,2.10
2023-11-15T21:21:06.535Z,2.45
2023-11-15T21:23:36.419Z,2.90
2023-11-15T21:26:07.055Z,3.70
2023-11-15T21:28:37.113Z,3.88
2023-11-15T21:31:07.649Z,5.65
2023-11-15T21:33:36.302Z,4.10
2023-11-15T21:36:05.186Z,3.33
2023-11-15T21:38:33.464Z,3.33
2023-11-15T21:41:02.609Z,3.03
2023-11-15T21:43:30.852Z,2.70
2023-11-15T21:45:59.156Z,3.70
2023-11-15T21:48:29.636Z,2.83
2023-11-15T21:50:57.878Z,1.50
2023-11-15T21:53:26.158Z,2.00
2023-11-15T21:55:54.452Z,3.25
2023-11-15T21:58:22.842Z,2.20
2023-11-15T22:00:51.127Z,6.85
2023-11-15T22:03:19.659Z,2.85
2023-11-15T22:05:49.365Z,1.83
2023-11-15T22:08:17.689Z,2.25
2023-11-15T22:10:45.966Z,2.90
2023-11-15T22:13:14.322Z,2.83
2023-11-15T22:15:42.590Z,2.15
2023-11-15T22:18:10.877Z,2.85
2023-11-15T22:20:39.293Z,2.28
2023-11-15T22:23:10.825Z,2.30
2023-11-15T22:25:38.996Z,2.72
2023-11-15T22:28:07.192Z,2.75
2023-11-15T22:30:35.703Z,2.00
2023-11-15T22:33:05.353Z,1.90
2023-11-15T22:35:35.408Z,2.30
2023-11-15T22:38:04.202Z,1.98
2023-11-15T22:40:33.752Z,1.90
2023-11-15T22:43:05.542Z,2.17
2023-11-15T22:45:34.168Z,1.65
2023-11-15T22:48:02.614Z,1.52
2023-11-15T22:50:30.799Z,1.50
2023-11-15T22:52:59.143Z,1.05
2023-11-15T22:55:27.542Z,1.50
2023-11-15T22:57:57.112Z,0.90
2023-11-15T23:00:34.026Z,0.90
2023-11-15T23:03:09.909Z,0.60
2023-11-15T23:05:39.475Z,0.70
2023-11-15T23:08:08.847Z,1.02
2023-11-15T23:10:38.602Z,1.05
2023-11-15T23:13:08.632Z,1.00
2023-11-15T23:15:37.195Z,1.30
2023-11-15T23:18:06.058Z,1.20
2023-11-15T23:20:36.688Z,1.15
2023-11-15T23:23:05.745Z,1.15
2023-11-15T23:25:34.440Z,2.10
2023-11-15T23:28:05.403Z,1.00
2023-11-15T23:30:36.122Z,1.15
2023-11-15T23:33:04.785Z,1.00
2023-11-15T23:35:34.217Z,1.33
2023-11-15T23:38:03.517Z,2.20
2023-11-15T23:40:31.875Z,2.30
2023-11-15T23:43:00.142Z,1.45
2023-11-15T23:45:29.378Z,2.22
2023-11-15T23:48:00.134Z,2.15
2023-11-15T23:50:28.514Z,0.90
2023-11-15T23:52:56.788Z,0.90
2023-11-15T23:55:25.064Z,1.00
2023-11-15T23:57:54.409Z,0.93
